sensor_id;sensor_type;location;lat;lon;timestamp;P1;durP1;ratioP1;P2;durP2;ratioP2
25503;SDS011;13410;52.114;5.718;2024-03-25T00:00:16;20.60;;;3.38;;
25503;SDS011;13410;52.114;5.718;2024-03-25T00:02:43;20.98;;;3.88;;
25503;SDS011;13410;52.114;5.718;2024-03-25T00:05:09;20.67;;;3.55;;
25503;SDS011;13410;52.114;5.718;2024-03-25T00:07:36;23.17;;;3.95;;
25503;SDS011;13410;52.114;5.718;2024-03-25T00:10:02;18.00;;;3.63;;
25503;SDS011;13410;52.114;5.718;2024-03-25T00:12:28;22.48;;;3.63;;
25503;SDS011;13410;52.114;5.718;2024-03-25T00:14:54;17.02;;;3.03;;
25503;SDS011;13410;52.114;5.718;2024-03-25T00:17:19;22.60;;;3.85;;
25503;SDS011;13410;52.114;5.718;2024-03-25T00:19:45;20.63;;;3.25;;
25503;SDS011;13410;52.114;5.718;2024-03-25T00:22:16;18.20;;;3.25;;
25503;SDS011;13410;52.114;5.718;2024-03-25T00:24:48;26.80;;;3.65;;
25503;SDS011;13410;52.114;5.718;2024-03-25T00:27:14;19.92;;;3.40;;
25503;SDS011;13410;52.114;5.718;2024-03-25T00:29:40;22.23;;;3.10;;
25503;SDS011;13410;52.114;5.718;2024-03-25T00:32:07;18.95;;;4.15;;
25503;SDS011;13410;52.114;5.718;2024-03-25T00:34:34;20.48;;;4.13;;
25503;SDS011;13410;52.114;5.718;2024-03-25T00:37:00;23.60;;;3.65;;
25503;SDS011;13410;52.114;5.718;2024-03-25T00:39:26;16.80;;;2.75;;
25503;SDS011;13410;52.114;5.718;2024-03-25T00:41:53;19.40;;;3.50;;
25503;SDS011;13410;52.114;5.718;2024-03-25T00:44:19;16.88;;;2.88;;
25503;SDS011;13410;52.114;5.718;2024-03-25T00:46:44;23.23;;;3.25;;
25503;SDS011;13410;52.114;5.718;2024-03-25T00:49:10;23.20;;;3.60;;
25503;SDS011;13410;52.114;5.718;2024-03-25T00:51:36;20.50;;;3.17;;
25503;SDS011;13410;52.114;5.718;2024-03-25T00:54:02;24.02;;;3.25;;
25503;SDS011;13410;52.114;5.718;2024-03-25T00:56:28;20.20;;;3.17;;
25503;SDS011;13410;52.114;5.718;2024-03-25T00:58:54;25.27;;;4.38;;
25503;SDS011;13410;52.114;5.718;2024-03-25T01:01:22;25.38;;;4.22;;
25503;SDS011;13410;52.114;5.718;2024-03-25T01:03:47;19.25;;;3.67;;
25503;SDS011;13410;52.114;5.718;2024-03-25T01:06:13;23.33;;;3.80;;
25503;SDS011;13410;52.114;5.718;2024-03-25T01:08:39;21.02;;;3.50;;
25503;SDS011;13410;52.114;5.718;2024-03-25T01:11:04;23.48;;;3.90;;
25503;SDS011;13410;52.114;5.718;2024-03-25T01:13:31;21.52;;;3.47;;
25503;SDS011;13410;52.114;5.718;2024-03-25T01:15:56;23.92;;;3.70;;
25503;SDS011;13410;52.114;5.718;2024-03-25T01:18:22;21.80;;;3.30;;
25503;SDS011;13410;52.114;5.718;2024-03-25T01:20:48;26.45;;;3.60;;
25503;SDS011;13410;52.114;5.718;2024-03-25T01:23:14;23.55;;;3.60;;
25503;SDS011;13410;52.114;5.718;2024-03-25T01:25:40;25.27;;;4.10;;
25503;SDS011;13410;52.114;5.718;2024-03-25T01:28:07;26.10;;;3.35;;
25503;SDS011;13410;52.114;5.718;2024-03-25T01:30:33;31.00;;;4.05;;
25503;SDS011;13410;52.114;5.718;2024-03-25T01:33:02;26.80;;;3.55;;
25503;SDS011;13410;52.114;5.718;2024-03-25T01:35:28;26.02;;;3.80;;
25503;SDS011;13410;52.114;5.718;2024-03-25T01:37:53;24.55;;;3.58;;
25503;SDS011;13410;52.114;5.718;2024-03-25T01:40:19;22.00;;;3.88;;
25503;SDS011;13410;52.114;5.718;2024-03-25T01:42:54;22.73;;;3.75;;
25503;SDS011;13410;52.114;5.718;2024-03-25T01:45:21;27.23;;;3.97;;
25503;SDS011;13410;52.114;5.718;2024-03-25T01:47:46;21.10;;;3.40;;
25503;SDS011;13410;52.114;5.718;2024-03-25T01:50:13;23.88;;;3.95;;
25503;SDS011;13410;52.114;5.718;2024-03-25T01:52:39;22.85;;;3.70;;
25503;SDS011;13410;52.114;5.718;2024-03-25T01:55:06;30.10;;;3.58;;
25503;SDS011;13410;52.114;5.718;2024-03-25T01:57:33;28.48;;;3.45;;
25503;SDS011;13410;52.114;5.718;2024-03-25T01:59:59;24.75;;;3.63;;
25503;SDS011;13410;52.114;5.718;2024-03-25T02:02:25;21.45;;;3.50;;
25503;SDS011;13410;52.114;5.718;2024-03-25T02:04:51;26.05;;;3.78;;
25503;SDS011;13410;52.114;5.718;2024-03-25T02:07:17;21.20;;;3.47;;
25503;SDS011;13410;52.114;5.718;2024-03-25T02:09:44;25.08;;;3.92;;
25503;SDS011;13410;52.114;5.718;2024-03-25T02:12:10;27.35;;;4.10;;
25503;SDS011;13410;52.114;5.718;2024-03-25T02:14:36;26.85;;;3.90;;
25503;SDS011;13410;52.114;5.718;2024-03-25T02:17:02;30.30;;;3.80;;
25503;SDS011;13410;52.114;5.718;2024-03-25T02:19:29;21.67;;;3.42;;
25503;SDS011;13410;52.114;5.718;2024-03-25T02:21:56;28.75;;;3.75;;
25503;SDS011;13410;52.114;5.718;2024-03-25T02:24:21;22.75;;;3.90;;
25503;SDS011;13410;52.114;5.718;2024-03-25T02:26:51;29.45;;;4.45;;
25503;SDS011;13410;52.114;5.718;2024-03-25T02:29:18;23.20;;;3.65;;
25503;SDS011;13410;52.114;5.718;2024-03-25T02:31:45;29.20;;;4.20;;
25503;SDS011;13410;52.114;5.718;2024-03-25T02:34:13;28.50;;;4.10;;
25503;SDS011;13410;52.114;5.718;2024-03-25T02:36:40;22.85;;;4.15;;
25503;SDS011;13410;52.114;5.718;2024-03-25T02:39:06;20.13;;;3.67;;
25503;SDS011;13410;52.114;5.718;2024-03-25T02:41:35;23.80;;;4.03;;
25503;SDS011;13410;52.114;5.718;2024-03-25T02:44:01;26.35;;;3.95;;
25503;SDS011;13410;52.114;5.718;2024-03-25T02:46:28;28.05;;;4.05;;
25503;SDS011;13410;52.114;5.718;2024-03-25T02:48:54;18.05;;;3.45;;
25503;SDS011;13410;52.114;5.718;2024-03-25T02:51:19;25.08;;;3.33;;
25503;SDS011;13410;52.114;5.718;2024-03-25T02:53:45;23.38;;;3.97;;
25503;SDS011;13410;52.114;5.718;2024-03-25T02:56:12;20.27;;;3.38;;
25503;SDS011;13410;52.114;5.718;2024-03-25T02:58:37;20.70;;;3.47;;
25503;SDS011;13410;52.114;5.718;2024-03-25T03:01:03;29.25;;;3.80;;
25503;SDS011;13410;52.114;5.718;2024-03-25T03:03:29;17.98;;;3.65;;
25503;SDS011;13410;52.114;5.718;2024-03-25T03:05:54;18.48;;;3.30;;
25503;SDS011;13410;52.114;5.718;2024-03-25T03:08:20;27.10;;;3.63;;
25503;SDS011;13410;52.114;5.718;2024-03-25T03:10:45;22.33;;;3.50;;
25503;SDS011;13410;52.114;5.718;2024-03-25T03:13:12;25.95;;;3.47;;
25503;SDS011;13410;52.114;5.718;2024-03-25T03:15:37;15.23;;;3.55;;
25503;SDS011;13410;52.114;5.718;2024-03-25T03:18:08;24.05;;;4.47;;
25503;SDS011;13410;52.114;5.718;2024-03-25T03:20:33;13.93;;;3.55;;
25503;SDS011;13410;52.114;5.718;2024-03-25T03:22:59;22.83;;;3.75;;
25503;SDS011;13410;52.114;5.718;2024-03-25T03:25:24;20.92;;;3.45;;
25503;SDS011;13410;52.114;5.718;2024-03-25T03:27:50;26.60;;;3.05;;
25503;SDS011;13410;52.114;5.718;2024-03-25T03:30:17;21.08;;;3.38;;
25503;SDS011;13410;52.114;5.718;2024-03-25T03:32:42;20.65;;;3.15;;
25503;SDS011;13410;52.114;5.718;2024-03-25T03:35:08;19.30;;;3.60;;
25503;SDS011;13410;52.114;5.718;2024-03-25T03:37:33;21.17;;;3.47;;
25503;SDS011;13410;52.114;5.718;2024-03-25T03:39:59;24.23;;;4.30;;
25503;SDS011;13410;52.114;5.718;2024-03-25T03:42:25;28.83;;;9.07;;
25503;SDS011;13410;52.114;5.718;2024-03-25T03:44:50;24.20;;;7.05;;
25503;SDS011;13410;52.114;5.718;2024-03-25T03:47:16;26.15;;;7.63;;
25503;SDS011;13410;52.114;5.718;2024-03-25T03:49:43;27.77;;;6.07;;
25503;SDS011;13410;52.114;5.718;2024-03-25T03:52:08;21.45;;;5.03;;
25503;SDS011;13410;52.114;5.718;2024-03-25T03:54:34;20.05;;;5.15;;
25503;SDS011;13410;52.114;5.718;2024-03-25T03:57:00;29.08;;;6.47;;
25503;SDS011;13410;52.114;5.718;2024-03-25T03:59:26;24.92;;;4.68;;
25503;SDS011;13410;52.114;5.718;2024-03-25T04:01:51;16.92;;;3.42;;
25503;SDS011;13410;52.114;5.718;2024-03-25T04:04:17;22.85;;;4.40;;
25503;SDS011;13410;52.114;5.718;2024-03-25T04:06:42;20.67;;;4.07;;
25503;SDS011;13410;52.114;5.718;2024-03-25T04:09:08;23.42;;;3.97;;
25503;SDS011;13410;52.114;5.718;2024-03-25T04:11:40;19.45;;;4.25;;
25503;SDS011;13410;52.114;5.718;2024-03-25T04:14:06;14.75;;;3.55;;
25503;SDS011;13410;52.114;5.718;2024-03-25T04:16:31;16.45;;;3.75;;
25503;SDS011;13410;52.114;5.718;2024-03-25T04:18:57;22.33;;;3.97;;
25503;SDS011;13410;52.114;5.718;2024-03-25T04:21:23;23.75;;;3.85;;
25503;SDS011;13410;52.114;5.718;2024-03-25T04:23:49;17.55;;;4.55;;
25503;SDS011;13410;52.114;5.718;2024-03-25T04:26:15;18.50;;;3.83;;
25503;SDS011;13410;52.114;5.718;2024-03-25T04:28:40;25.10;;;4.03;;
25503;SDS011;13410;52.114;5.718;2024-03-25T04:31:07;22.95;;;4.10;;
25503;SDS011;13410;52.114;5.718;2024-03-25T04:33:33;19.95;;;4.50;;
25503;SDS011;13410;52.114;5.718;2024-03-25T04:36:00;27.80;;;4.43;;
25503;SDS011;13410;52.114;5.718;2024-03-25T04:38:25;19.20;;;3.80;;
25503;SDS011;13410;52.114;5.718;2024-03-25T04:40:51;23.38;;;4.47;;
25503;SDS011;13410;52.114;5.718;2024-03-25T04:43:17;24.30;;;4.25;;
25503;SDS011;13410;52.114;5.718;2024-03-25T04:45:42;21.60;;;4.95;;
25503;SDS011;13410;52.114;5.718;2024-03-25T04:48:08;21.80;;;4.72;;
25503;SDS011;13410;52.114;5.718;2024-03-25T04:50:35;25.90;;;4.35;;
25503;SDS011;13410;52.114;5.718;2024-03-25T04:53:01;22.20;;;3.60;;
25503;SDS011;13410;52.114;5.718;2024-03-25T04:55:26;34.10;;;4.65;;
25503;SDS011;13410;52.114;5.718;2024-03-25T04:57:52;23.95;;;4.97;;
25503;SDS011;13410;52.114;5.718;2024-03-25T05:00:18;29.02;;;4.70;;
25503;SDS011;13410;52.114;5.718;2024-03-25T05:02:43;26.42;;;5.25;;
25503;SDS011;13410;52.114;5.718;2024-03-25T05:05:09;23.75;;;4.30;;
25503;SDS011;13410;52.114;5.718;2024-03-25T05:07:35;25.27;;;4.45;;
25503;SDS011;13410;52.114;5.718;2024-03-25T05:10:01;18.48;;;4.00;;
25503;SDS011;13410;52.114;5.718;2024-03-25T05:12:28;27.98;;;4.47;;
25503;SDS011;13410;52.114;5.718;2024-03-25T05:17:24;30.73;;;4.82;;
25503;SDS011;13410;52.114;5.718;2024-03-25T05:19:52;19.92;;;5.10;;
25503;SDS011;13410;52.114;5.718;2024-03-25T05:22:19;26.95;;;5.18;;
25503;SDS011;13410;52.114;5.718;2024-03-25T05:24:46;26.45;;;4.95;;
25503;SDS011;13410;52.114;5.718;2024-03-25T05:27:15;33.83;;;5.85;;
25503;SDS011;13410;52.114;5.718;2024-03-25T05:29:43;24.42;;;5.28;;
25503;SDS011;13410;52.114;5.718;2024-03-25T05:34:49;26.90;;;7.40;;
25503;SDS011;13410;52.114;5.718;2024-03-25T06:08:18;26.88;;;7.50;;
25503;SDS011;13410;52.114;5.718;2024-03-25T06:10:49;30.50;;;8.98;;
25503;SDS011;13410;52.114;5.718;2024-03-25T06:13:16;23.13;;;8.10;;
25503;SDS011;13410;52.114;5.718;2024-03-25T06:15:43;28.58;;;8.10;;
25503;SDS011;13410;52.114;5.718;2024-03-25T06:18:09;25.42;;;7.30;;
25503;SDS011;13410;52.114;5.718;2024-03-25T06:20:35;23.98;;;7.97;;
25503;SDS011;13410;52.114;5.718;2024-03-25T06:23:00;22.63;;;7.68;;
25503;SDS011;13410;52.114;5.718;2024-03-25T06:25:27;28.88;;;7.20;;
25503;SDS011;13410;52.114;5.718;2024-03-25T06:27:56;25.83;;;7.95;;
25503;SDS011;13410;52.114;5.718;2024-03-25T06:30:23;32.67;;;7.87;;
25503;SDS011;13410;52.114;5.718;2024-03-25T06:33:07;31.35;;;8.55;;
25503;SDS011;13410;52.114;5.718;2024-03-25T06:35:51;22.45;;;8.30;;
25503;SDS011;13410;52.114;5.718;2024-03-25T06:38:17;23.65;;;8.23;;
25503;SDS011;13410;52.114;5.718;2024-03-25T06:40:42;23.73;;;7.22;;
25503;SDS011;13410;52.114;5.718;2024-03-25T06:43:10;21.05;;;7.00;;
25503;SDS011;13410;52.114;5.718;2024-03-25T06:45:37;24.77;;;7.22;;
25503;SDS011;13410;52.114;5.718;2024-03-25T06:48:02;23.10;;;7.30;;
25503;SDS011;13410;52.114;5.718;2024-03-25T06:50:29;27.75;;;6.90;;
25503;SDS011;13410;52.114;5.718;2024-03-25T06:52:54;25.60;;;7.20;;
25503;SDS011;13410;52.114;5.718;2024-03-25T06:55:20;30.25;;;7.55;;
25503;SDS011;13410;52.114;5.718;2024-03-25T06:57:50;23.15;;;7.40;;
25503;SDS011;13410;52.114;5.718;2024-03-25T07:00:16;23.13;;;6.80;;
25503;SDS011;13410;52.114;5.718;2024-03-25T07:02:43;28.48;;;9.02;;
25503;SDS011;13410;52.114;5.718;2024-03-25T07:05:09;30.80;;;11.35;;
25503;SDS011;13410;52.114;5.718;2024-03-25T07:07:34;21.50;;;8.75;;
25503;SDS011;13410;52.114;5.718;2024-03-25T07:10:00;23.05;;;10.02;;
25503;SDS011;13410;52.114;5.718;2024-03-25T07:12:26;71.70;;;37.67;;
25503;SDS011;13410;52.114;5.718;2024-03-25T07:14:53;42.25;;;19.08;;
25503;SDS011;13410;52.114;5.718;2024-03-25T07:17:19;18.45;;;7.32;;
25503;SDS011;13410;52.114;5.718;2024-03-25T07:19:47;26.25;;;13.93;;
25503;SDS011;13410;52.114;5.718;2024-03-25T07:22:13;45.08;;;21.25;;
25503;SDS011;13410;52.114;5.718;2024-03-25T07:24:39;22.15;;;7.70;;
25503;SDS011;13410;52.114;5.718;2024-03-25T07:27:06;16.33;;;4.78;;
25503;SDS011;13410;52.114;5.718;2024-03-25T07:29:32;14.35;;;4.13;;
25503;SDS011;13410;52.114;5.718;2024-03-25T07:31:58;21.17;;;5.28;;
25503;SDS011;13410;52.114;5.718;2024-03-25T07:34:23;15.18;;;5.38;;
25503;SDS011;13410;52.114;5.718;2024-03-25T07:36:49;19.40;;;5.05;;
25503;SDS011;13410;52.114;5.718;2024-03-25T07:39:15;13.30;;;4.22;;
25503;SDS011;13410;52.114;5.718;2024-03-25T07:41:41;14.55;;;4.93;;
25503;SDS011;13410;52.114;5.718;2024-03-25T07:44:08;14.95;;;5.00;;
25503;SDS011;13410;52.114;5.718;2024-03-25T07:46:34;19.17;;;4.80;;
25503;SDS011;13410;52.114;5.718;2024-03-25T07:48:59;35.97;;;16.92;;
25503;SDS011;13410;52.114;5.718;2024-03-25T07:51:25;14.50;;;5.15;;
25503;SDS011;13410;52.114;5.718;2024-03-25T07:53:50;20.08;;;5.75;;
25503;SDS011;13410;52.114;5.718;2024-03-25T07:56:16;18.30;;;5.30;;
25503;SDS011;13410;52.114;5.718;2024-03-25T07:58:42;19.30;;;5.05;;
25503;SDS011;13410;52.114;5.718;2024-03-25T08:01:07;12.57;;;4.88;;
25503;SDS011;13410;52.114;5.718;2024-03-25T08:03:33;22.10;;;5.25;;
25503;SDS011;13410;52.114;5.718;2024-03-25T08:05:59;21.38;;;5.07;;
25503;SDS011;13410;52.114;5.718;2024-03-25T08:08:26;17.08;;;4.45;;
25503;SDS011;13410;52.114;5.718;2024-03-25T08:10:52;21.27;;;4.97;;
25503;SDS011;13410;52.114;5.718;2024-03-25T08:13:17;19.40;;;5.00;;
25503;SDS011;13410;52.114;5.718;2024-03-25T08:15:45;21.95;;;4.72;;
25503;SDS011;13410;52.114;5.718;2024-03-25T08:18:10;13.75;;;4.60;;
25503;SDS011;13410;52.114;5.718;2024-03-25T08:20:36;17.65;;;4.40;;
25503;SDS011;13410;52.114;5.718;2024-03-25T08:23:02;15.20;;;4.00;;
25503;SDS011;13410;52.114;5.718;2024-03-25T08:25:28;16.50;;;3.70;;
25503;SDS011;13410;52.114;5.718;2024-03-25T08:27:54;15.57;;;4.43;;
25503;SDS011;13410;52.114;5.718;2024-03-25T08:30:19;19.67;;;4.10;;
25503;SDS011;13410;52.114;5.718;2024-03-25T08:32:45;17.63;;;3.97;;
25503;SDS011;13410;52.114;5.718;2024-03-25T08:35:11;15.32;;;4.00;;
25503;SDS011;13410;52.114;5.718;2024-03-25T08:37:36;12.52;;;3.50;;
25503;SDS011;13410;52.114;5.718;2024-03-25T08:40:02;15.32;;;2.83;;
25503;SDS011;13410;52.114;5.718;2024-03-25T08:42:29;14.95;;;2.50;;
25503;SDS011;13410;52.114;5.718;2024-03-25T08:44:54;14.93;;;2.67;;
25503;SDS011;13410;52.114;5.718;2024-03-25T08:47:20;11.50;;;2.30;;
25503;SDS011;13410;52.114;5.718;2024-03-25T08:49:46;12.73;;;2.20;;
25503;SDS011;13410;52.114;5.718;2024-03-25T08:52:12;10.95;;;2.55;;
25503;SDS011;13410;52.114;5.718;2024-03-25T08:54:39;11.27;;;2.20;;
25503;SDS011;13410;52.114;5.718;2024-03-25T08:57:04;13.27;;;2.17;;
25503;SDS011;13410;52.114;5.718;2024-03-25T08:59:30;12.98;;;2.60;;
25503;SDS011;13410;52.114;5.718;2024-03-25T09:01:55;11.35;;;2.20;;
25503;SDS011;13410;52.114;5.718;2024-03-25T09:04:21;13.52;;;2.58;;
25503;SDS011;13410;52.114;5.718;2024-03-25T09:06:47;11.23;;;2.47;;
25503;SDS011;13410;52.114;5.718;2024-03-25T09:09:12;11.70;;;2.47;;
25503;SDS011;13410;52.114;5.718;2024-03-25T09:11:58;8.80;;;2.70;;
25503;SDS011;13410;52.114;5.718;2024-03-25T09:14:24;13.73;;;2.90;;
25503;SDS011;13410;52.114;5.718;2024-03-25T09:16:50;11.43;;;3.17;;
25503;SDS011;13410;52.114;5.718;2024-03-25T09:19:16;9.70;;;2.83;;
25503;SDS011;13410;52.114;5.718;2024-03-25T09:21:42;12.80;;;2.65;;
25503;SDS011;13410;52.114;5.718;2024-03-25T09:24:07;12.05;;;3.72;;
25503;SDS011;13410;52.114;5.718;2024-03-25T09:26:33;11.50;;;3.00;;
25503;SDS011;13410;52.114;5.718;2024-03-25T09:28:59;12.35;;;3.53;;
25503;SDS011;13410;52.114;5.718;2024-03-25T09:31:24;17.88;;;4.75;;
25503;SDS011;13410;52.114;5.718;2024-03-25T09:33:50;12.30;;;3.20;;
25503;SDS011;13410;52.114;5.718;2024-03-25T09:36:15;12.98;;;3.60;;
25503;SDS011;13410;52.114;5.718;2024-03-25T09:38:41;11.95;;;4.05;;
25503;SDS011;13410;52.114;5.718;2024-03-25T09:41:08;15.15;;;4.38;;
25503;SDS011;13410;52.114;5.718;2024-03-25T09:43:44;39.58;;;24.35;;
25503;SDS011;13410;52.114;5.718;2024-03-25T09:46:13;13.80;;;3.72;;
25503;SDS011;13410;52.114;5.718;2024-03-25T09:48:39;13.27;;;3.20;;
25503;SDS011;13410;52.114;5.718;2024-03-25T09:51:06;17.08;;;3.80;;
25503;SDS011;13410;52.114;5.718;2024-03-25T09:53:35;18.35;;;4.72;;
25503;SDS011;13410;52.114;5.718;2024-03-25T09:56:01;13.10;;;3.78;;
25503;SDS011;13410;52.114;5.718;2024-03-25T09:58:26;13.93;;;4.07;;
25503;SDS011;13410;52.114;5.718;2024-03-25T10:00:53;15.63;;;3.55;;
25503;SDS011;13410;52.114;5.718;2024-03-25T10:03:20;15.80;;;3.90;;
25503;SDS011;13410;52.114;5.718;2024-03-25T10:05:46;17.35;;;3.42;;
25503;SDS011;13410;52.114;5.718;2024-03-25T10:08:11;13.65;;;3.40;;
25503;SDS011;13410;52.114;5.718;2024-03-25T10:10:37;10.23;;;3.03;;
25503;SDS011;13410;52.114;5.718;2024-03-25T10:13:03;12.38;;;3.05;;
25503;SDS011;13410;52.114;5.718;2024-03-25T10:15:30;9.98;;;2.40;;
25503;SDS011;13410;52.114;5.718;2024-03-25T10:17:56;10.35;;;2.45;;
25503;SDS011;13410;52.114;5.718;2024-03-25T10:20:22;9.32;;;2.38;;
25503;SDS011;13410;52.114;5.718;2024-03-25T10:22:47;14.70;;;3.38;;
25503;SDS011;13410;52.114;5.718;2024-03-25T10:25:22;13.02;;;2.58;;
25503;SDS011;13410;52.114;5.718;2024-03-25T10:28:01;11.38;;;3.17;;
25503;SDS011;13410;52.114;5.718;2024-03-25T10:30:27;12.90;;;3.05;;
25503;SDS011;13410;52.114;5.718;2024-03-25T10:33:03;10.43;;;2.45;;
25503;SDS011;13410;52.114;5.718;2024-03-25T10:35:36;9.23;;;2.55;;
25503;SDS011;13410;52.114;5.718;2024-03-25T10:38:04;9.50;;;2.67;;
25503;SDS011;13410;52.114;5.718;2024-03-25T10:40:32;13.63;;;2.97;;
25503;SDS011;13410;52.114;5.718;2024-03-25T10:43:05;13.93;;;3.78;;
25503;SDS011;13410;52.114;5.718;2024-03-25T10:45:55;14.30;;;3.35;;
25503;SDS011;13410;52.114;5.718;2024-03-25T10:48:33;18.27;;;5.28;;
25503;SDS011;13410;52.114;5.718;2024-03-25T10:51:02;12.77;;;4.80;;
25503;SDS011;13410;52.114;5.718;2024-03-25T10:53:31;12.38;;;3.28;;
25503;SDS011;13410;52.114;5.718;2024-03-25T10:56:00;11.35;;;2.88;;
25503;SDS011;13410;52.114;5.718;2024-03-25T10:58:26;11.88;;;2.97;;
25503;SDS011;13410;52.114;5.718;2024-03-25T11:00:53;11.82;;;3.03;;
25503;SDS011;13410;52.114;5.718;2024-03-25T11:03:21;11.32;;;2.80;;
25503;SDS011;13410;52.114;5.718;2024-03-25T11:05:48;5.30;;;1.83;;
25503;SDS011;13410;52.114;5.718;2024-03-25T11:08:15;10.98;;;2.95;;
25503;SDS011;13410;52.114;5.718;2024-03-25T11:10:45;11.20;;;2.90;;
25503;SDS011;13410;52.114;5.718;2024-03-25T11:13:16;10.02;;;2.67;;
25503;SDS011;13410;52.114;5.718;2024-03-25T11:15:46;13.00;;;3.25;;
25503;SDS011;13410;52.114;5.718;2024-03-25T11:18:15;9.95;;;3.00;;
25503;SDS011;13410;52.114;5.718;2024-03-25T11:20:42;9.15;;;2.47;;
25503;SDS011;13410;52.114;5.718;2024-03-25T11:23:11;11.95;;;2.78;;
25503;SDS011;13410;52.114;5.718;2024-03-25T11:25:38;7.07;;;2.30;;
25503;SDS011;13410;52.114;5.718;2024-03-25T11:28:04;9.27;;;2.45;;
25503;SDS011;13410;52.114;5.718;2024-03-25T11:30:30;10.63;;;2.75;;
25503;SDS011;13410;52.114;5.718;2024-03-25T11:32:57;10.57;;;3.08;;
25503;SDS011;13410;52.114;5.718;2024-03-25T11:35:25;10.75;;;3.17;;
25503;SDS011;13410;52.114;5.718;2024-03-25T11:37:52;9.60;;;3.17;;
25503;SDS011;13410;52.114;5.718;2024-03-25T11:40:18;9.50;;;3.17;;
25503;SDS011;13410;52.114;5.718;2024-03-25T11:42:44;11.40;;;3.40;;
25503;SDS011;13410;52.114;5.718;2024-03-25T11:45:17;8.90;;;2.93;;
25503;SDS011;13410;52.114;5.718;2024-03-25T11:47:44;10.15;;;3.10;;
25503;SDS011;13410;52.114;5.718;2024-03-25T11:50:12;11.32;;;3.58;;
25503;SDS011;13410;52.114;5.718;2024-03-25T11:52:39;11.50;;;3.08;;
25503;SDS011;13410;52.114;5.718;2024-03-25T11:55:05;9.10;;;3.10;;
25503;SDS011;13410;52.114;5.718;2024-03-25T11:57:33;8.55;;;2.90;;
25503;SDS011;13410;52.114;5.718;2024-03-25T12:00:00;10.30;;;3.22;;
25503;SDS011;13410;52.114;5.718;2024-03-25T12:02:26;8.00;;;2.97;;
25503;SDS011;13410;52.114;5.718;2024-03-25T12:04:52;20.02;;;9.57;;
25503;SDS011;13410;52.114;5.718;2024-03-25T12:07:18;34.30;;;16.55;;
25503;SDS011;13410;52.114;5.718;2024-03-25T12:09:43;8.75;;;3.20;;
25503;SDS011;13410;52.114;5.718;2024-03-25T12:12:28;9.43;;;2.92;;
25503;SDS011;13410;52.114;5.718;2024-03-25T12:14:53;8.18;;;2.63;;
25503;SDS011;13410;52.114;5.718;2024-03-25T12:17:20;7.07;;;2.53;;
25503;SDS011;13410;52.114;5.718;2024-03-25T12:20:03;7.40;;;2.50;;
25503;SDS011;13410;52.114;5.718;2024-03-25T12:22:31;8.68;;;2.95;;
25503;SDS011;13410;52.114;5.718;2024-03-25T12:24:58;7.90;;;2.72;;
25503;SDS011;13410;52.114;5.718;2024-03-25T12:27:24;10.63;;;3.35;;
25503;SDS011;13410;52.114;5.718;2024-03-25T12:29:57;37.08;;;21.02;;
25503;SDS011;13410;52.114;5.718;2024-03-25T12:32:30;20.70;;;11.35;;
25503;SDS011;13410;52.114;5.718;2024-03-25T12:34:57;18.02;;;7.85;;
25503;SDS011;13410;52.114;5.718;2024-03-25T12:37:23;22.73;;;13.10;;
25503;SDS011;13410;52.114;5.718;2024-03-25T12:39:51;8.55;;;2.83;;
25503;SDS011;13410;52.114;5.718;2024-03-25T12:42:16;20.50;;;11.55;;
25503;SDS011;13410;52.114;5.718;2024-03-25T12:44:42;30.13;;;17.58;;
25503;SDS011;13410;52.114;5.718;2024-03-25T12:47:08;8.23;;;3.22;;
25503;SDS011;13410;52.114;5.718;2024-03-25T12:49:34;7.72;;;3.90;;
25503;SDS011;13410;52.114;5.718;2024-03-25T12:52:00;16.38;;;8.45;;
25503;SDS011;13410;52.114;5.718;2024-03-25T12:54:30;35.78;;;20.10;;
25503;SDS011;13410;52.114;5.718;2024-03-25T12:56:55;9.55;;;3.28;;
25503;SDS011;13410;52.114;5.718;2024-03-25T12:59:21;6.82;;;2.70;;
25503;SDS011;13410;52.114;5.718;2024-03-25T13:01:48;6.38;;;2.67;;
25503;SDS011;13410;52.114;5.718;2024-03-25T13:04:16;9.15;;;2.63;;
25503;SDS011;13410;52.114;5.718;2024-03-25T13:06:41;8.65;;;2.97;;
25503;SDS011;13410;52.114;5.718;2024-03-25T13:09:07;8.82;;;3.22;;
25503;SDS011;13410;52.114;5.718;2024-03-25T13:11:33;8.10;;;3.20;;
25503;SDS011;13410;52.114;5.718;2024-03-25T13:13:58;8.55;;;3.65;;
25503;SDS011;13410;52.114;5.718;2024-03-25T13:16:25;9.27;;;3.28;;
25503;SDS011;13410;52.114;5.718;2024-03-25T13:18:51;10.90;;;5.22;;
25503;SDS011;13410;52.114;5.718;2024-03-25T13:21:16;20.05;;;12.45;;
25503;SDS011;13410;52.114;5.718;2024-03-25T13:23:42;8.07;;;3.90;;
25503;SDS011;13410;52.114;5.718;2024-03-25T13:26:08;5.78;;;3.03;;
25503;SDS011;13410;52.114;5.718;2024-03-25T13:28:34;7.40;;;3.72;;
25503;SDS011;13410;52.114;5.718;2024-03-25T13:30:59;6.28;;;2.95;;
25503;SDS011;13410;52.114;5.718;2024-03-25T13:33:27;7.38;;;2.65;;
25503;SDS011;13410;52.114;5.718;2024-03-25T13:35:53;6.72;;;2.55;;
25503;SDS011;13410;52.114;5.718;2024-03-25T13:38:18;5.60;;;2.40;;
25503;SDS011;13410;52.114;5.718;2024-03-25T13:40:44;45.35;;;30.00;;
25503;SDS011;13410;52.114;5.718;2024-03-25T13:43:09;8.75;;;5.03;;
25503;SDS011;13410;52.114;5.718;2024-03-25T13:45:35;6.68;;;2.70;;
25503;SDS011;13410;52.114;5.718;2024-03-25T13:48:01;7.60;;;3.97;;
25503;SDS011;13410;52.114;5.718;2024-03-25T13:50:28;12.57;;;5.43;;
25503;SDS011;13410;52.114;5.718;2024-03-25T13:52:54;19.58;;;13.82;;
25503;SDS011;13410;52.114;5.718;2024-03-25T13:55:20;7.13;;;4.85;;
25503;SDS011;13410;52.114;5.718;2024-03-25T13:57:45;5.97;;;2.88;;
25503;SDS011;13410;52.114;5.718;2024-03-25T14:00:11;4.25;;;2.63;;
25503;SDS011;13410;52.114;5.718;2024-03-25T14:02:38;10.77;;;5.10;;
25503;SDS011;13410;52.114;5.718;2024-03-25T14:05:04;8.80;;;3.17;;
25503;SDS011;13410;52.114;5.718;2024-03-25T14:07:30;6.95;;;3.88;;
25503;SDS011;13410;52.114;5.718;2024-03-25T14:09:55;7.50;;;2.70;;
25503;SDS011;13410;52.114;5.718;2024-03-25T14:12:21;5.53;;;2.80;;
25503;SDS011;13410;52.114;5.718;2024-03-25T14:14:48;6.32;;;2.30;;
25503;SDS011;13410;52.114;5.718;2024-03-25T14:17:14;5.25;;;2.53;;
25503;SDS011;13410;52.114;5.718;2024-03-25T14:19:39;5.95;;;2.63;;
25503;SDS011;13410;52.114;5.718;2024-03-25T14:22:05;10.15;;;6.72;;
25503;SDS011;13410;52.114;5.718;2024-03-25T14:24:32;6.07;;;3.15;;
25503;SDS011;13410;52.114;5.718;2024-03-25T14:26:57;8.27;;;2.85;;
25503;SDS011;13410;52.114;5.718;2024-03-25T14:29:23;5.47;;;2.60;;
25503;SDS011;13410;52.114;5.718;2024-03-25T14:31:49;6.35;;;2.42;;
25503;SDS011;13410;52.114;5.718;2024-03-25T14:34:14;7.70;;;3.55;;
25503;SDS011;13410;52.114;5.718;2024-03-25T14:36:40;8.93;;;3.70;;
25503;SDS011;13410;52.114;5.718;2024-03-25T14:39:06;6.38;;;2.75;;
25503;SDS011;13410;52.114;5.718;2024-03-25T14:41:39;9.55;;;4.25;;
25503;SDS011;13410;52.114;5.718;2024-03-25T14:44:05;6.68;;;3.08;;
25503;SDS011;13410;52.114;5.718;2024-03-25T14:46:31;9.45;;;4.22;;
25503;SDS011;13410;52.114;5.718;2024-03-25T14:48:57;9.77;;;2.83;;
25503;SDS011;13410;52.114;5.718;2024-03-25T14:51:22;8.35;;;4.15;;
25503;SDS011;13410;52.114;5.718;2024-03-25T14:53:48;7.78;;;4.65;;
25503;SDS011;13410;52.114;5.718;2024-03-25T14:56:14;6.40;;;3.25;;
25503;SDS011;13410;52.114;5.718;2024-03-25T14:58:39;8.23;;;3.53;;
25503;SDS011;13410;52.114;5.718;2024-03-25T15:01:05;7.10;;;3.90;;
25503;SDS011;13410;52.114;5.718;2024-03-25T15:03:31;9.48;;;3.28;;
25503;SDS011;13410;52.114;5.718;2024-03-25T15:05:56;7.22;;;3.55;;
25503;SDS011;13410;52.114;5.718;2024-03-25T15:08:22;9.20;;;5.43;;